Time;durP1;ratioP1;P1;durP2;ratioP2;P2;SDS_P1;SDS_P2;PMS_P1;PMS_P2;Temp;Humidity;BMP_temperature;BMP_pressure;BME280_temperature;BME280_humidity;BME280_pressure;Samples;Min_cycle;Max_cycle;Signal;HPM_P1;HPM_P2
2022/12/28 00:00:23;;;;;;;11.23;5.35;;;4.30;93.80;;;;;;5051895;28;20445;-66
2022/12/28 00:02:48;;;;;;;14.95;6.53;;;4.30;93.80;;;;;;5051496;28;20065;-66
2022/12/28 00:05:16;;;;;;;11.82;5.75;;;4.30;93.70;;;;;;5051459;28;20037;-66
2022/12/28 00:07:42;;;;;;;12.68;6.28;;;4.20;94.00;;;;;;5051808;28;20064;-66
2022/12/28 00:10:08;;;;;;;10.32;5.50;;;4.20;94.10;;;;;;5051483;28;20033;-66
2022/12/28 00:12:34;;;;;;;9.55;5.65;;;4.10;94.50;;;;;;5052056;28;20033;-66
2022/12/28 00:14:59;;;;;;;13.63;5.72;;;4.10;94.60;;;;;;5051396;28;20025;-66
2022/12/28 00:17:25;;;;;;;11.13;5.45;;;4.10;94.60;;;;;;5051626;28;20052;-66
2022/12/28 00:19:50;;;;;;;10.00;4.60;;;4.10;94.80;;;;;;5051703;28;20136;-65
2022/12/28 00:22:16;;;;;;;8.73;4.18;;;4.10;94.80;;;;;;5051234;28;20239;-67
2022/12/28 00:24:42;;;;;;;7.18;4.60;;;4.20;94.90;;;;;;5051828;28;20037;-66
2022/12/28 00:27:07;;;;;;;9.48;4.80;;;4.20;94.50;;;;;;5051406;28;20027;-67
2022/12/28 00:29:33;;;;;;;9.30;4.50;;;4.20;94.20;;;;;;5051834;28;20096;-67
2022/12/28 00:31:59;;;;;;;13.02;4.60;;;4.10;94.20;;;;;;5051064;28;20029;-67
2022/12/28 00:34:25;;;;;;;10.18;5.43;;;4.10;94.10;;;;;;5051248;28;20036;-66
2022/12/28 00:36:50;;;;;;;8.38;4.80;;;4.10;94.40;;;;;;5051601;28;20040;-65
2022/12/28 00:39:17;;;;;;;15.10;5.38;;;4.10;94.30;;;;;;5050846;28;20059;-67
2022/12/28 00:41:43;;;;;;;7.65;4.60;;;4.10;94.60;;;;;;5055030;28;20036;-64
2022/12/28 00:44:08;;;;;;;8.80;4.45;;;4.10;94.60;;;;;;5054518;28;20040;-66
2022/12/28 00:46:34;;;;;;;11.40;5.25;;;4.10;94.60;;;;;;5054928;28;20053;-66
2022/12/28 00:49:00;;;;;;;9.07;5.00;;;4.10;94.40;;;;;;5054718;28;20056;-66
2022/12/28 00:51:26;;;;;;;8.43;5.05;;;4.10;94.60;;;;;;5054858;28;20068;-65
2022/12/28 00:53:51;;;;;;;11.40;5.40;;;4.10;94.40;;;;;;5055034;28;20029;-66
2022/12/28 00:56:20;;;;;;;10.07;5.47;;;4.00;94.30;;;;;;5054647;28;20029;-66
2022/12/28 00:58:45;;;;;;;13.73;6.30;;;4.00;94.30;;;;;;5055278;28;20118;-66
2022/12/28 01:01:18;;;;;;;13.23;5.97;;;4.00;94.20;;;;;;5054561;28;20580;-66
2022/12/28 01:03:44;;;;;;;11.90;5.55;;;4.00;94.20;;;;;;5054644;28;20025;-65
2022/12/28 01:06:16;;;;;;;13.05;6.30;;;4.00;94.30;;;;;;5054150;28;20032;-65
2022/12/28 01:08:42;;;;;;;12.40;5.80;;;4.00;94.10;;;;;;5053379;28;20025;-65
2022/12/28 01:11:12;;;;;;;8.95;5.30;;;4.00;94.20;;;;;;5054355;28;20045;-66
2022/12/28 01:13:38;;;;;;;8.32;5.35;;;4.00;94.40;;;;;;5054734;28;20029;-66
2022/12/28 01:16:15;;;;;;;11.27;5.90;;;4.00;94.50;;;;;;5054293;28;20028;-66
2022/12/28 01:18:42;;;;;;;14.57;6.47;;;4.00;94.50;;;;;;5054871;28;20147;-66
2022/12/28 01:21:16;;;;;;;10.77;6.30;;;4.10;95.10;;;;;;5054217;28;20036;-66
2022/12/28 01:23:43;;;;;;;15.90;5.85;;;4.10;95.00;;;;;;5054737;28;20037;-66
2022/12/28 01:26:09;;;;;;;13.95;6.03;;;4.10;94.90;;;;;;5054011;28;20033;-67
2022/12/28 01:28:35;;;;;;;11.18;6.25;;;4.00;95.00;;;;;;5054609;28;20040;-66
2022/12/28 01:31:07;;;;;;;13.98;6.78;;;4.00;95.10;;;;;;5054039;28;20422;-66
2022/12/28 01:33:33;;;;;;;14.27;6.05;;;4.00;95.30;;;;;;5053976;28;20044;-66
2022/12/28 01:36:04;;;;;;;11.13;6.18;;;3.90;95.50;;;;;;5054088;28;20029;-67
2022/12/28 01:38:29;;;;;;;17.50;7.10;;;3.90;95.70;;;;;;5054479;28;20404;-66
2022/12/28 01:40:55;;;;;;;13.02;6.45;;;3.90;96.00;;;;;;5054133;28;20025;-66
2022/12/28 01:43:36;;;;;;;15.15;6.80;;;3.80;96.30;;;;;;5053593;28;20033;-65
2022/12/28 01:46:02;;;;;;;;;;;3.90;96.80;;;;;;5054226;28;20029;-66
2022/12/28 01:48:28;;;;;;;15.50;6.18;;;3.80;96.40;;;;;;5053640;28;19905;-66
2022/12/28 01:50:53;;;;;;;11.30;5.93;;;3.80;96.60;;;;;;5053136;28;20029;-66
2022/12/28 01:53:20;;;;;;;14.07;7.75;;;3.80;96.60;;;;;;5053019;28;20111;-67
2022/12/28 01:55:47;;;;;;;11.70;6.18;;;3.70;96.60;;;;;;5053979;28;20473;-66
2022/12/28 01:58:19;;;;;;;11.02;6.15;;;3.70;96.80;;;;;;5053382;28;20048;-67
2022/12/28 02:00:45;;;;;;;12.70;6.40;;;3.70;97.20;;;;;;5053970;28;20107;-67
2022/12/28 02:03:17;;;;;;;15.15;6.47;;;3.60;97.30;;;;;;5053290;28;20120;-67
2022/12/28 02:05:47;;;;;;;10.50;6.07;;;3.60;97.50;;;;;;5053833;28;20048;-66
2022/12/28 02:08:36;;;;;;;12.05;6.60;;;3.60;97.70;;;;;;5053178;28;20029;-66
2022/12/28 02:11:04;;;;;;;13.43;6.20;;;3.50;98.10;;;;;;5033213;28;20048;-66
2022/12/28 02:13:31;;;;;;;9.93;5.40;;;3.50;98.60;;;;;;5053575;28;20025;-66
2022/12/28 02:15:56;;;;;;;13.93;6.20;;;3.50;98.40;;;;;;5053479;28;20021;-66
2022/12/28 02:18:24;;;;;;;13.90;5.68;;;3.50;98.20;;;;;;5053398;28;20108;-66
2022/12/28 02:21:10;;;;;;;12.32;5.63;;;3.50;98.30;;;;;;5053112;28;20450;-66
2022/12/28 02:24:00;;;;;;;9.70;5.28;;;3.50;98.50;;;;;;5053103;28;20466;-66
2022/12/28 02:27:01;;;;;;;11.07;5.60;;;3.40;98.30;;;;;;5052995;28;20366;-66
2022/12/28 02:29:36;;;;;;;;;;;3.40;98.50;;;;;;5053353;28;20028;-66
2022/12/28 02:32:19;;;;;;;10.43;6.25;;;3.40;98.80;;;;;;5053263;28;19909;-66
2022/12/28 02:35:04;;;;;;;13.80;6.55;;;3.30;98.80;;;;;;5053293;28;20027;-66
2022/12/28 02:37:39;;;;;;;12.05;6.18;;;3.30;99.10;;;;;;5052189;28;20077;-67
2022/12/28 02:40:18;;;;;;;11.00;6.40;;;3.30;99.30;;;;;;5052881;28;20113;-66
2022/12/28 02:42:45;;;;;;;11.25;6.50;;;3.20;99.50;;;;;;5052707;28;20469;-66
2022/12/28 02:51:15;;;;;;;10.77;6.60;;;3.20;99.90;;;;;;5052625;28;20090;-66
2022/12/28 02:57:42;;;;;;;12.85;6.85;;;3.20;99.90;;;;;;5052657;28;20118;-66
2022/12/28 03:00:23;;;;;;;11.88;6.60;;;3.20;99.90;;;;;;5052691;28;20020;-69
2022/12/28 03:03:11;;;;;;;9.23;5.03;;;3.20;99.90;;;;;;5052494;28;20037;-66
2022/12/28 03:09:13;;;;;;;12.00;5.90;;;3.20;99.90;;;;;;5052415;28;20071;-66
2022/12/28 03:11:41;;;;;;;12.18;5.63;;;3.10;99.90;;;;;;5052692;28;20055;-66
2022/12/28 03:14:13;;;;;;;11.43;6.22;;;3.10;99.90;;;;;;5051287;28;20082;-65
2022/12/28 03:31:06;;;;;;;8.77;5.38;;;3.10;99.90;;;;;;5052531;28;20055;-65
2022/12/28 03:33:41;;;;;;;8.85;5.35;;;3.00;99.90;;;;;;5052014;28;20481;-66
2022/12/28 03:36:16;;;;;;;9.77;4.70;;;3.00;99.90;;;;;;5052416;28;20021;-66
2022/12/28 03:38:56;;;;;;;10.48;4.68;;;3.10;99.90;;;;;;5051997;28;20045;-66
2022/12/28 03:41:37;;;;;;;7.35;3.97;;;3.10;99.90;;;;;;5051628;28;20029;-66
2022/12/28 03:44:19;;;;;;;9.07;4.03;;;3.10;99.90;;;;;;5052249;28;20079;-66
2022/12/28 03:46:57;;;;;;;7.65;4.18;;;3.10;99.60;;;;;;5052214;28;20021;-65
2022/12/28 03:49:23;;;;;;;8.20;4.25;;;3.10;99.40;;;;;;5051803;28;20021;-66
2022/12/28 03:51:51;;;;;;;9.82;3.75;;;3.00;99.50;;;;;;5052201;28;20029;-65
2022/12/28 03:54:17;;;;;;;7.45;4.00;;;3.00;99.60;;;;;;5052077;28;20021;-65
2022/12/28 03:56:50;;;;;;;8.35;3.83;;;3.00;99.50;;;;;;5051813;28;20025;-65
2022/12/28 03:59:17;;;;;;;6.68;3.78;;;2.90;99.30;;;;;;5051023;28;20025;-66
2022/12/28 04:01:43;;;;;;;6.43;4.10;;;2.90;99.60;;;;;;5051863;28;20462;-66
2022/12/28 04:04:09;;;;;;;7.30;4.10;;;2.80;99.90;;;;;;5052234;28;20033;-66
2022/12/28 04:06:35;;;;;;;6.82;4.22;;;2.80;99.90;;;;;;5051657;28;20078;-66
2022/12/28 04:09:02;;;;;;;7.70;4.00;;;2.80;99.90;;;;;;5051988;28;20033;-66
2022/12/28 04:11:27;;;;;;;7.55;4.25;;;2.80;99.90;;;;;;5051435;28;20458;-65
2022/12/28 04:13:53;;;;;;;7.07;3.70;;;2.70;99.90;;;;;;5051822;28;20079;-65
2022/12/28 04:16:20;;;;;;;8.50;3.83;;;2.70;99.90;;;;;;5054298;28;20071;-65
2022/12/28 04:18:46;;;;;;;8.02;3.70;;;2.60;99.90;;;;;;5055433;28;20029;-65
2022/12/28 04:21:13;;;;;;;8.70;4.38;;;2.60;99.90;;;;;;5055642;28;20032;-66
2022/12/28 04:23:38;;;;;;;7.07;4.10;;;2.60;99.90;;;;;;5054955;28;20037;-66
2022/12/28 04:26:12;;;;;;;7.85;3.90;;;2.60;99.90;;;;;;5055652;28;20037;-65
2022/12/28 04:28:39;;;;;;;6.13;3.78;;;2.60;99.90;;;;;;5055119;28;20106;-66
2022/12/28 04:31:06;;;;;;;7.35;3.80;;;2.60;99.90;;;;;;5054985;28;20037;-65
2022/12/28 04:33:34;;;;;;;14.13;4.18;;;2.60;99.90;;;;;;5054560;28;20059;-65
2022/12/28 04:36:04;;;;;;;8.13;4.40;;;2.60;99.90;;;;;;5054645;28;20051;-65
2022/12/28 04:38:30;;;;;;;8.30;4.10;;;2.60;99.90;;;;;;5055567;28;20118;-66
2022/12/28 04:40:55;;;;;;;6.90;3.95;;;2.60;99.90;;;;;;5057469;28;20427;-65
2022/12/28 04:43:21;;;;;;;8.02;4.25;;;2.70;99.90;;;;;;5056695;28;20024;-66
2022/12/28 04:46:02;;;;;;;10.90;4.00;;;2.70;99.90;;;;;;5057035;28;20029;-66
2022/12/28 04:48:28;;;;;;;8.52;4.45;;;2.80;99.90;;;;;;5057697;28;20036;-67
2022/12/28 04:50:54;;;;;;;11.38;5.15;;;2.70;99.90;;;;;;5057379;28;20029;-66
2022/12/28 04:53:20;;;;;;;12.75;4.78;;;2.80;99.90;;;;;;5055527;28;20032;-67
2022/12/28 04:55:46;;;;;;;11.82;4.35;;;2.70;99.90;;;;;;5055398;28;20470;-66
2022/12/28 04:58:12;;;;;;;8.30;4.82;;;2.70;99.90;;;;;;5056030;28;20025;-67
2022/12/28 05:00:38;;;;;;;8.38;5.00;;;2.70;99.90;;;;;;5054960;28;20116;-66
2022/12/28 05:03:03;;;;;;;6.75;4.28;;;2.70;99.90;;;;;;5055060;28;20108;-66
2022/12/28 05:05:30;;;;;;;9.88;4.38;;;2.70;99.90;;;;;;5054838;28;20029;-66
2022/12/28 05:08:00;;;;;;;7.63;4.50;;;2.70;99.90;;;;;;5054496;28;20025;-66
2022/12/28 05:10:26;;;;;;;10.75;5.47;;;2.80;99.90;;;;;;5054459;28;20033;-66
2022/12/28 05:12:53;;;;;;;9.57;4.65;;;2.80;99.90;;;;;;5055161;28;20036;-66
2022/12/28 05:15:19;;;;;;;10.35;4.72;;;2.80;99.90;;;;;;5054090;28;20063;-67
2022/12/28 05:17:45;;;;;;;9.30;4.50;;;2.70;99.70;;;;;;5055046;28;20064;-66
2022/12/28 05:20:11;;;;;;;7.18;3.88;;;2.70;99.80;;;;;;5054739;28;20111;-67
2022/12/28 05:22:36;;;;;;;12.38;4.47;;;2.70;99.40;;;;;;5054085;28;20033;-66
2022/12/28 05:25:03;;;;;;;8.23;4.32;;;2.70;99.30;;;;;;5054569;28;20072;-66
2022/12/28 05:27:28;;;;;;;10.13;4.68;;;2.70;99.20;;;;;;5053656;28;20040;-66
2022/12/28 05:29:54;;;;;;;9.30;4.80;;;2.60;99.00;;;;;;5054410;28;20024;-66
2022/12/28 05:32:20;;;;;;;7.70;3.55;;;2.70;99.10;;;;;;5053962;28;20065;-68
2022/12/28 05:34:45;;;;;;;6.32;3.13;;;2.70;99.30;;;;;;5054365;28;20378;-66
2022/12/28 05:37:11;;;;;;;8.93;4.10;;;2.60;99.10;;;;;;5053739;28;20026;-66
2022/12/28 05:39:37;;;;;;;9.85;3.30;;;2.60;98.90;;;;;;5053875;28;20070;-66
2022/12/28 05:42:03;;;;;;;7.60;3.72;;;2.60;98.60;;;;;;5053831;28;20441;-66
2022/12/28 05:44:29;;;;;;;7.72;3.58;;;2.60;98.70;;;;;;5053726;28;20055;-67
2022/12/28 05:46:55;;;;;;;6.88;3.60;;;2.60;98.80;;;;;;5054465;28;20079;-67
2022/12/28 05:49:21;;;;;;;9.88;3.70;;;2.50;98.90;;;;;;5053460;28;20029;-69
2022/12/28 05:51:50;;;;;;;6.53;3.58;;;2.50;99.10;;;;;;5053876;28;20512;-64
2022/12/28 05:54:17;;;;;;;7.25;3.72;;;2.50;99.30;;;;;;5053923;28;20454;-65
2022/12/28 05:56:42;;;;;;;9.13;4.20;;;2.50;99.40;;;;;;5053578;28;20025;-65
2022/12/28 05:59:08;;;;;;;6.28;3.70;;;2.50;99.70;;;;;;5053475;28;20021;-65
2022/12/28 06:01:37;;;;;;;7.63;3.60;;;2.50;99.70;;;;;;5053438;28;20033;-65
2022/12/28 06:04:07;;;;;;;7.07;4.05;;;2.40;99.70;;;;;;5053647;28;20035;-65
2022/12/28 06:06:34;;;;;;;6.32;3.58;;;2.40;99.90;;;;;;5053354;28;20029;-65
2022/12/28 06:09:01;;;;;;;6.65;4.25;;;2.40;99.90;;;;;;5053623;28;20191;-65
2022/12/28 06:11:28;;;;;;;7.38;3.47;;;2.50;99.90;;;;;;5053258;28;20060;-65
2022/12/28 06:13:54;;;;;;;8.25;4.05;;;2.40;99.90;;;;;;5053678;28;20029;-65
2022/12/28 06:16:25;;;;;;;6.88;4.30;;;2.40;99.90;;;;;;5053566;28;20067;-65
2022/12/28 06:18:51;;;;;;;9.60;4.70;;;2.40;99.90;;;;;;5053505;28;20377;-66
2022/12/28 06:21:30;;;;;;;12.65;5.45;;;2.40;99.90;;;;;;5053460;28;20060;-66
2022/12/28 06:23:58;;;;;;;8.50;3.88;;;2.30;99.90;;;;;;5053435;28;20075;-66
2022/12/28 06:26:25;;;;;;;8.65;3.90;;;2.30;99.90;;;;;;5052963;28;20104;-68
2022/12/28 06:28:51;;;;;;;10.43;4.10;;;2.30;99.90;;;;;;5053262;28;20037;-66
2022/12/28 06:31:22;;;;;;;7.68;3.85;;;2.30;99.90;;;;;;5052814;28;20031;-66
2022/12/28 06:33:52;;;;;;;6.78;4.05;;;2.30;99.90;;;;;;5050748;28;20029;-65
2022/12/28 06:36:21;;;;;;;7.25;4.57;;;2.30;99.90;;;;;;5053263;28;20025;-66
2022/12/28 06:38:48;;;;;;;10.02;4.40;;;2.30;99.90;;;;;;5052227;28;20049;-66
2022/12/28 06:41:15;;;;;;;8.52;4.07;;;2.30;99.90;;;;;;5051835;28;20381;-65
2022/12/28 06:43:42;;;;;;;10.55;4.07;;;2.30;99.90;;;;;;5051294;28;20029;-65
2022/12/28 06:46:08;;;;;;;7.90;4.05;;;2.30;99.90;;;;;;5052852;28;20109;-66
2022/12/28 06:48:34;;;;;;;6.38;3.35;;;2.30;99.90;;;;;;5052491;28;20124;-67
2022/12/28 06:51:03;;;;;;;10.93;4.28;;;2.30;99.90;;;;;;5052508;28;20078;-66
2022/12/28 06:53:31;;;;;;;7.90;4.38;;;2.30;99.90;;;;;;5052250;28;20044;-67
2022/12/28 06:55:59;;;;;;;6.55;3.92;;;2.30;99.90;;;;;;5052604;28;20025;-66
2022/12/28 06:58:26;;;;;;;6.38;3.90;;;2.30;99.90;;;;;;5052800;28;20108;-66
2022/12/28 07:00:53;;;;;;;7.85;4.43;;;2.30;99.90;;;;;;5052398;28;20032;-68
2022/12/28 07:03:20;;;;;;;7.82;4.03;;;2.30;99.90;;;;;;5052395;28;20068;-66
2022/12/28 07:05:45;;;;;;;11.07;4.75;;;2.40;99.90;;;;;;5051805;28;20029;-66
2022/12/28 07:08:11;;;;;;;6.97;3.97;;;2.40;99.90;;;;;;5052416;28;20032;-66
2022/12/28 07:10:37;;;;;;;7.07;4.68;;;2.40;99.90;;;;;;5051952;28;20033;-66
2022/12/28 07:13:03;;;;;;;10.10;5.28;;;2.40;99.90;;;;;;5052239;28;20060;-65
2022/12/28 07:15:29;;;;;;;13.65;5.80;;;2.40;99.90;;;;;;5051527;28;20104;-66
2022/12/28 07:17:56;;;;;;;12.23;6.50;;;2.40;99.90;;;;;;5052324;28;20048;-66
2022/12/28 07:20:22;;;;;;;17.13;6.85;;;2.40;99.90;;;;;;5050691;28;20456;-66
2022/12/28 07:22:47;;;;;;;17.50;6.90;;;2.30;99.90;;;;;;5051707;28;20116;-65
2022/12/28 07:25:13;;;;;;;13.88;7.03;;;2.30;99.90;;;;;;5052473;28;20029;-65
2022/12/28 07:27:39;;;;;;;13.38;7.40;;;2.40;99.90;;;;;;5051503;28;20025;-66
2022/12/28 07:30:05;;;;;;;11.77;7.07;;;2.40;99.90;;;;;;5052237;28;20028;-66
2022/12/28 07:32:31;;;;;;;11.60;7.30;;;2.40;99.90;;;;;;5051663;28;20494;-67
2022/12/28 07:34:56;;;;;;;12.10;6.50;;;2.40;99.90;;;;;;5052046;28;20060;-66
2022/12/28 07:37:22;;;;;;;11.63;6.03;;;2.40;99.90;;;;;;5052074;28;20056;-66
2022/12/28 07:39:48;;;;;;;13.00;6.45;;;2.40;99.90;;;;;;5051698;28;20690;-65
2022/12/28 07:42:13;;;;;;;11.20;5.80;;;2.40;99.90;;;;;;5051919;28;20044;-65
2022/12/28 07:44:40;;;;;;;13.80;5.70;;;2.40;99.90;;;;;;5051633;28;20036;-66
2022/12/28 07:47:07;;;;;;;9.82;4.68;;;2.40;99.90;;;;;;5051938;28;20067;-68
2022/12/28 07:49:33;;;;;;;9.30;5.03;;;2.40;99.90;;;;;;5051613;28;20036;-66
2022/12/28 07:51:58;;;;;;;8.35;4.72;;;2.50;99.80;;;;;;5056062;28;20028;-65
2022/12/28 07:54:24;;;;;;;9.65;4.35;;;2.40;99.60;;;;;;5055774;28;20381;-66
2022/12/28 07:56:50;;;;;;;9.65;5.00;;;2.40;99.30;;;;;;5054945;28;20035;-65
2022/12/28 07:59:15;;;;;;;9.80;4.95;;;2.40;99.40;;;;;;5055831;28;20114;-66
2022/12/28 08:01:41;;;;;;;12.10;5.72;;;2.50;99.60;;;;;;5055226;28;20068;-66
2022/12/28 08:04:13;;;;;;;13.27;5.63;;;2.50;99.20;;;;;;5055741;28;20043;-66
2022/12/28 08:06:41;;;;;;;12.23;5.25;;;2.50;99.40;;;;;;5055258;28;20469;-65
2022/12/28 08:09:08;;;;;;;9.10;5.15;;;2.60;99.30;;;;;;5055885;28;20048;-66
2022/12/28 08:11:36;;;;;;;10.10;5.00;;;2.60;99.00;;;;;;5055258;28;20029;-67
2022/12/28 08:14:02;;;;;;;10.63;5.55;;;2.60;98.80;;;;;;5055579;28;20032;-66
2022/12/28 08:16:34;;;;;;;10.95;5.22;;;2.70;98.90;;;;;;5055633;28;20041;-66
2022/12/28 08:19:00;;;;;;;13.15;5.63;;;2.70;98.90;;;;;;5055787;28;20025;-66
2022/12/28 08:21:30;;;;;;;11.23;6.22;;;2.70;98.70;;;;;;5055669;28;20028;-65
2022/12/28 08:23:56;;;;;;;11.20;6.43;;;2.70;98.60;;;;;;5054933;28;20024;-67
2022/12/28 08:26:25;;;;;;;9.73;5.90;;;2.70;98.40;;;;;;5055368;28;20029;-66
2022/12/28 08:28:53;;;;;;;13.15;5.40;;;2.70;98.50;;;;;;5054916;28;20045;-66
2022/12/28 08:31:22;;;;;;;11.35;5.60;;;2.70;98.50;;;;;;5055130;28;20021;-67
2022/12/28 08:33:48;;;;;;;13.32;5.88;;;2.80;98.70;;;;;;5054580;28;20028;-66
2022/12/28 08:36:14;;;;;;;13.27;6.35;;;2.90;98.90;;;;;;5055136;28;20105;-65
2022/12/28 08:38:41;;;;;;;12.65;6.28;;;2.90;98.70;;;;;;5054704;28;20128;-66
2022/12/28 08:41:09;;;;;;;13.55;5.68;;;2.90;98.50;;;;;;5055081;28;20044;-66
2022/12/28 08:43:35;;;;;;;11.65;5.40;;;2.90;98.60;;;;;;5054661;28;20029;-66
2022/12/28 08:46:12;;;;;;;15.52;6.05;;;2.90;98.60;;;;;;5055268;28;20037;-66
2022/12/28 08:48:38;;;;;;;13.73;5.90;;;2.90;98.50;;;;;;5054633;28;20426;-65
2022/12/28 08:51:09;;;;;;;12.18;6.28;;;3.00;98.60;;;;;;5054994;28;20056;-65
2022/12/28 08:53:36;;;;;;;9.07;5.57;;;3.00;98.50;;;;;;5054586;28;20116;-67
2022/12/28 08:56:09;;;;;;;11.80;6.35;;;3.00;98.40;;;;;;5054577;28;20104;-66
2022/12/28 08:58:36;;;;;;;13.95;7.03;;;3.10;98.40;;;;;;5054129;28;20116;-67
2022/12/28 09:01:23;;;;;;;17.42;7.47;;;3.10;98.10;;;;;;5054355;28;20060;-66
2022/12/28 09:03:51;;;;;;;15.50;7.38;;;3.20;98.30;;;;;;5054096;28;20055;-66
2022/12/28 09:06:32;;;;;;;17.35;7.70;;;3.20;97.90;;;;;;5054666;28;20096;-66
2022/12/28 09:08:59;;;;;;;18.45;8.05;;;3.30;97.90;;;;;;5054262;28;20060;-66
2022/12/28 09:11:25;;;;;;;25.40;8.43;;;3.30;97.70;;;;;;5054767;28;20109;-66
2022/12/28 09:13:51;;;;;;;18.27;7.57;;;3.40;97.30;;;;;;5054163;28;20414;-66
2022/12/28 09:16:22;;;;;;;20.05;8.63;;;3.40;97.40;;;;;;5054563;28;20032;-67
2022/12/28 09:18:51;;;;;;;;;;;3.50;97.30;;;;;;5054780;28;20047;-67
2022/12/28 09:21:19;;;;;;;16.23;7.93;;;3.60;97.00;;;;;;5054372;28;19927;-67
2022/12/28 09:23:46;;;;;;;21.00;8.40;;;3.60;96.90;;;;;;5053835;28;20048;-66
2022/12/28 09:26:18;;;;;;;14.68;7.57;;;3.60;96.80;;;;;;5054279;28;20044;-66
2022/12/28 09:28:52;;;;;;;14.27;6.55;;;3.70;96.60;;;;;;5053482;28;20111;-65
2022/12/28 09:31:19;;;;;;;15.77;6.50;;;3.70;96.60;;;;;;5054305;28;20101;-65
2022/12/28 09:33:57;;;;;;;12.73;6.03;;;3.70;96.20;;;;;;5053633;28;20094;-65
2022/12/28 09:36:24;;;;;;;18.73;6.38;;;3.80;96.60;;;;;;5054010;28;20025;-66
2022/12/28 09:38:50;;;;;;;14.52;6.13;;;3.80;96.30;;;;;;5053051;28;20486;-66
2022/12/28 09:41:51;;;;;;;13.52;7.00;;;3.90;96.00;;;;;;5054263;28;20093;-65
2022/12/28 09:44:37;;;;;;;12.23;6.72;;;3.90;95.80;;;;;;5048583;28;20047;-66
2022/12/28 09:47:18;;;;;;;11.07;6.10;;;4.00;95.80;;;;;;5053652;28;20326;-65
2022/12/28 09:49:50;;;;;;;;;;;4.00;95.80;;;;;;5053800;28;20088;-66
2022/12/28 09:52:24;;;;;;;13.73;6.28;;;4.00;95.40;;;;;;5053286;28;19928;-66
2022/12/28 09:54:50;;;;;;;14.55;6.10;;;4.10;95.70;;;;;;5052957;28;20385;-67
2022/12/28 09:57:18;;;;;;;10.32;5.85;;;4.10;95.50;;;;;;5053406;28;20025;-66
2022/12/28 09:59:46;;;;;;;12.38;6.28;;;4.20;95.90;;;;;;5053375;28;20057;-67
2022/12/28 10:02:24;;;;;;;15.15;6.35;;;4.30;95.80;;;;;;5053398;28;20021;-66
2022/12/28 10:04:50;;;;;;;16.55;6.20;;;4.50;95.30;;;;;;5053308;28;20105;-66
2022/12/28 10:07:16;;;;;;;17.33;6.45;;;4.60;94.50;;;;;;5052173;28;20057;-66
2022/12/28 10:09:42;;;;;;;16.73;6.90;;;4.60;93.40;;;;;;5053195;28;20056;-67
2022/12/28 10:12:16;;;;;;;13.25;5.90;;;4.70;93.30;;;;;;5052752;28;20070;-66
2022/12/28 10:14:45;;;;;;;19.67;6.88;;;4.80;93.00;;;;;;5052725;28;20057;-67
2022/12/28 10:17:15;;;;;;;12.70;6.55;;;4.90;92.50;;;;;;5053212;28;20025;-65
2022/12/28 10:19:45;;;;;;;12.85;5.82;;;5.00;91.90;;;;;;5053130;28;20044;-66
2022/12/28 10:22:16;;;;;;;13.32;5.70;;;5.10;92.20;;;;;;5053003;28;20102;-66
2022/12/28 10:24:43;;;;;;;19.45;5.78;;;5.20;91.70;;;;;;5052843;28;20111;-66
2022/12/28 10:27:21;;;;;;;13.13;5.35;;;5.20;91.20;;;;;;5053348;28;20039;-66
2022/12/28 10:29:50;;;;;;;10.80;5.10;;;5.30;90.80;;;;;;5052660;28;20040;-65
2022/12/28 10:32:17;;;;;;;14.40;5.28;;;5.30;90.70;;;;;;5053008;28;20041;-65
2022/12/28 10:35:01;;;;;;;11.00;5.05;;;5.40;90.10;;;;;;5052506;28;20028;-67
2022/12/28 10:37:33;;;;;;;11.23;5.25;;;5.50;88.70;;;;;;5052499;28;20064;-66
2022/12/28 10:40:02;;;;;;;15.05;5.32;;;5.70;88.00;;;;;;5052374;28;20029;-67
2022/12/28 10:42:39;;;;;;;11.18;5.20;;;5.80;89.10;;;;;;5052233;28;20025;-65
2022/12/28 10:45:15;;;;;;;10.85;5.22;;;6.00;87.60;;;;;;5052529;28;20443;-66
2022/12/28 10:47:45;;;;;;;9.88;5.30;;;6.10;87.20;;;;;;5052925;28;20036;-66
2022/12/28 10:50:36;;;;;;;10.88;5.03;;;6.20;86.20;;;;;;5052698;28;20025;-66
2022/12/28 10:53:02;;;;;;;7.70;4.65;;;6.20;84.90;;;;;;5051928;28;20029;-67
2022/12/28 10:55:31;;;;;;;14.00;5.05;;;6.30;83.70;;;;;;5051100;28;20470;-66
2022/12/28 10:58:20;;;;;;;14.38;4.80;;;6.30;82.50;;;;;;5052068;28;20035;-66
2022/12/28 11:00:58;;;;;;;8.75;4.68;;;6.40;83.00;;;;;;5052238;28;20025;-66
2022/12/28 11:03:30;;;;;;;11.93;6.32;;;6.40;82.20;;;;;;5052615;28;20024;-66
2022/12/28 11:06:17;;;;;;;7.75;4.75;;;6.50;82.20;;;;;;5052196;28;20036;-65
2022/12/28 11:08:45;;;;;;;9.68;4.70;;;6.70;81.50;;;;;;5052216;28;20021;-65
2022/12/28 11:11:21;;;;;;;9.93;4.28;;;6.80;80.60;;;;;;5052130;28;20500;-66
2022/12/28 11:13:55;;;;;;;12.50;5.32;;;6.90;79.40;;;;;;5052111;28;20470;-66
2022/12/28 11:16:21;;;;;;;15.18;4.65;;;7.00;79.80;;;;;;5052260;28;20032;-67
2022/12/28 11:18:47;;;;;;;10.40;4.00;;;7.00;79.00;;;;;;5051920;28;20355;-67
2022/12/28 11:21:19;;;;;;;14.68;5.05;;;7.00;78.70;;;;;;5051975;28;20108;-66
2022/12/28 11:23:47;;;;;;;12.90;5.05;;;7.00;78.60;;;;;;5051976;28;20037;-69
2022/12/28 11:26:13;;;;;;;11.35;5.03;;;7.10;79.60;;;;;;5052018;28;20029;-66
2022/12/28 11:28:48;;;;;;;7.72;4.40;;;7.10;78.40;;;;;;5052144;28;20028;-66
2022/12/28 11:31:22;;;;;;;15.93;5.05;;;7.10;77.00;;;;;;5052131;28;20025;-66
2022/12/28 11:33:51;;;;;;;8.95;4.75;;;7.00;76.80;;;;;;5050454;28;20029;-66
2022/12/28 11:36:26;;;;;;;8.82;4.65;;;6.90;75.70;;;;;;5052197;28;20055;-65
2022/12/28 11:38:54;;;;;;;14.13;4.80;;;6.90;76.90;;;;;;5051629;28;20045;-66
2022/12/28 11:41:22;;;;;;;8.20;4.95;;;7.00;76.70;;;;;;5051966;28;20021;-66
2022/12/28 11:43:52;;;;;;;11.55;5.28;;;7.00;76.80;;;;;;5051466;28;20103;-66
2022/12/28 11:46:20;;;;;;;7.78;4.70;;;7.00;76.10;;;;;;5050169;28;20021;-66
2022/12/28 11:49:22;;;;;;;7.25;4.55;;;7.10;76.00;;;;;;5031605;28;20022;-66
2022/12/28 11:52:13;;;;;;;10.30;5.07;;;7.10;76.00;;;;;;5031223;28;20470;-68
2022/12/28 11:54:49;;;;;;;;;;;7.10;77.10;;;;;;5032441;28;20080;-66
2022/12/28 11:57:34;;;;;;;14.15;5.00;;;7.10;76.70;;;;;;5031852;28;19937;-67
2022/12/28 12:00:18;;;;;;;9.75;4.75;;;7.10;76.30;;;;;;5031618;28;20397;-67
2022/12/28 12:02:52;;;;;;;5.80;3.83;;;7.20;76.70;;;;;;5032002;28;20528;-67
2022/12/28 12:05:36;;;;;;;8.52;4.72;;;7.20;76.40;;;;;;5031905;28;20180;-67
2022/12/28 12:08:22;;;;;;;9.55;4.40;;;7.10;77.10;;;;;;5031423;28;20033;-67
2022/12/28 12:11:08;;;;;;;6.30;4.10;;;7.20;77.20;;;;;;5031718;28;20032;-66
2022/12/28 12:13:41;;;;;;;4.97;3.50;;;7.10;76.50;;;;;;5031651;28;20060;-66
2022/12/28 12:16:17;;;;;;;8.88;4.40;;;7.20;76.30;;;;;;5031550;28;20111;-66
2022/12/28 12:18:58;;;;;;;9.75;4.18;;;7.10;76.50;;;;;;5031800;28;20032;-65
2022/12/28 12:21:36;;;;;;;6.88;4.07;;;7.10;77.00;;;;;;5031804;28;20032;-66
2022/12/28 12:24:31;;;;;;;7.82;4.00;;;7.10;77.50;;;;;;5031239;28;20056;-65
2022/12/28 12:27:22;;;;;;;5.75;4.00;;;7.10;77.70;;;;;;5027040;28;20053;-66
2022/12/28 12:29:59;;;;;;;6.88;3.70;;;7.10;77.80;;;;;;5031523;28;20432;-66
2022/12/28 12:32:40;;;;;;;6.57;4.50;;;7.10;78.10;;;;;;5031494;28;20123;-66
2022/12/28 12:35:12;;;;;;;7.00;4.20;;;7.10;77.80;;;;;;5031410;28;20389;-66
2022/12/28 12:38:06;;;;;;;6.72;4.28;;;7.10;79.00;;;;;;5034909;28;20395;-66
2022/12/28 12:40:57;;;;;;;8.07;4.35;;;7.10;78.30;;;;;;5034932;28;20431;-66
2022/12/28 12:43:43;;;;;;;14.60;4.33;;;7.10;78.50;;;;;;5035076;28;20069;-66
2022/12/28 12:46:50;;;;;;;6.03;3.88;;;7.10;78.00;;;;;;5052332;28;20258;-66
2022/12/28 12:49:44;;;;;;;10.15;4.43;;;7.20;79.10;;;;;;5049863;28;20040;-67
2022/12/28 12:52:22;;;;;;;12.38;4.82;;;7.20;79.60;;;;;;5054691;28;20033;-66
2022/12/28 12:54:47;;;;;;;9.30;5.15;;;7.30;79.20;;;;;;5054724;28;20435;-66
2022/12/28 12:57:21;;;;;;;8.95;5.00;;;7.40;79.00;;;;;;5054365;28;20072;-66
2022/12/28 13:00:06;;;;;;;9.05;4.90;;;7.40;77.90;;;;;;5054950;28;20097;-65
2022/12/28 13:02:49;;;;;;;12.05;4.93;;;7.50;78.40;;;;;;5054496;28;20061;-66
2022/12/28 13:05:21;;;;;;;8.60;4.80;;;7.50;78.00;;;;;;5054410;28;20033;-67
2022/12/28 13:07:48;;;;;;;9.93;5.25;;;7.60;78.20;;;;;;5054769;28;20466;-67
2022/12/28 13:10:25;;;;;;;7.45;4.97;;;7.70;78.10;;;;;;5054310;28;20112;-67
2022/12/28 13:12:55;;;;;;;8.95;5.70;;;7.80;77.60;;;;;;5054542;28;20051;-66
2022/12/28 13:15:20;;;;;;;9.93;5.95;;;7.90;76.70;;;;;;5054546;28;20363;-66
2022/12/28 13:18:16;;;;;;;9.95;5.53;;;7.90;76.60;;;;;;5054264;28;20109;-67
2022/12/28 13:21:01;;;;;;;11.43;6.00;;;7.90;76.40;;;;;;5054154;28;20052;-67
2022/12/28 13:23:29;;;;;;;13.45;6.68;;;7.90;76.90;;;;;;5054002;28;20021;-67
2022/12/28 13:25:58;;;;;;;16.33;6.50;;;8.00;77.30;;;;;;5053774;28;20029;-66
2022/12/28 13:28:33;;;;;;;12.75;6.03;;;7.90;76.70;;;;;;5054198;28;20036;-65
2022/12/28 13:31:22;;;;;;;11.68;6.78;;;7.80;76.10;;;;;;5053954;28;20032;-66
2022/12/28 13:33:57;;;;;;;9.35;6.15;;;7.80;76.90;;;;;;5053982;28;20389;-65
2022/12/28 13:36:24;;;;;;;11.75;6.00;;;7.80;76.80;;;;;;5054219;28;20059;-66
2022/12/28 13:39:03;;;;;;;14.75;6.53;;;7.70;77.10;;;;;;5054176;28;20045;-66